Beatrice, NE

4:45 AM CST on December 08, 2019 (GMT -0600)
Beatrice Municipal

Weather History for KBIE - October, 2019

Change the Weather History Date:

Monday, October 28, 2019

  Actual Average Record
Temperature  
Mean Temperature 32 °F -  
Max Temperature 37 °F 60 °F 82 °F (2016)
Min Temperature 26 °F 38 °F 19 °F (2017)
Degree Days  
Heating Degree Days 34    
Moisture  
Dew Point 21 °F    
Average Humidity 65    
Maximum Humidity 99    
Minimum Humidity 41    
Precipitation  
Precipitation 0.02 in - - ()
Sea Level Pressure  
Sea Level Pressure 30.16 in    
Wind  
Wind Speed 10 mph (North)    
Max Wind Speed 17 mph    
Max Gust Speed 23 mph    
Visibility 8 miles    
Events Fog , Snow    
Averages and records for this station are not official NWS values.
T = Trace of Precipitation, MM = Missing Value Source: NWS Daily Summary

Daily Weather History Graph

Daily Weather History Graph

Search for Another Location

Airport or City:

Astronomy

Oct. 28, 2019 Rise Set
Actual Time 7:51 AM CDT 6:29 PM CDT
Civil Twilight 7:23 AM CDT 6:57 PM CDT
Nautical Twilight 6:51 AM CDT 7:29 PM CDT
Astronomical Twilight 6:20 AM CDT 8:00 PM CDT
Moon 8:14 AM CDT (10/28) 7:15 PM CDT (10/28)
Length of Visible Light 11h 33m
Length of Day
10h 37m
New Moon, 0% of the Moon is Illuminated
Oct 28
New Moon
Nov 4
First Quarter
Nov 12
Full
Nov 19
Last Quarter
Nov 26
New

Hourly Weather History & Observations

Time (CDT) Temp. Windchill Dew Point Humidity Pressure Visibility Wind Dir Wind Speed Gust Speed Precip Events Conditions
12:15 AM 36.5 °F 27.8 °F 21.2 °F 54% 30.18 in 10.0 mi North 13.8 mph 23.0 mph N/A   Overcast
12:35 AM 35.8 °F 25.7 °F 20.8 °F 55% 30.19 in 10.0 mi NNW 17.3 mph - N/A   Overcast
12:55 AM 35.4 °F 25.6 °F 20.8 °F 55% 30.20 in 10.0 mi NNW 16.1 mph - N/A   Overcast
1:15 AM 35.1 °F 26.9 °F 20.7 °F 56% 30.19 in 10.0 mi North 11.5 mph - N/A   Overcast
1:35 AM 34.7 °F 26.9 °F 20.5 °F 56% 30.19 in 10.0 mi NNW 10.4 mph - N/A   Overcast
1:55 AM 34.7 °F 25.5 °F 20.1 °F 55% 30.20 in 10.0 mi North 13.8 mph - N/A   Overcast
2:10 AM 34.7 °F 25.1 °F 20.1 °F 55% 30.20 in 10.0 mi North 15.0 mph - N/A   Overcast
2:35 AM 34.5 °F 25.3 °F 20.8 °F 57% 30.19 in 10.0 mi NNW 13.8 mph - N/A   Overcast
2:55 AM 34.2 °F 24.8 °F 20.3 °F 57% 30.19 in 10.0 mi North 13.8 mph 19.6 mph N/A   Overcast
3:15 AM 34.0 °F 24.6 °F 20.3 °F 57% 30.19 in 10.0 mi North 13.8 mph 17.3 mph N/A   Overcast
3:35 AM 34.0 °F 26.0 °F 20.1 °F 57% 30.19 in 10.0 mi North 10.4 mph - N/A   Overcast
3:55 AM 33.8 °F 25.3 °F 19.8 °F 56% 30.19 in 10.0 mi North 11.5 mph - N/A   Overcast
4:15 AM 34.0 °F 25.5 °F 19.4 °F 55% 30.18 in 10.0 mi North 11.5 mph 18.4 mph N/A   Overcast
4:35 AM 34.0 °F 25.0 °F 19.4 °F 55% 30.18 in 10.0 mi North 12.7 mph - N/A   Overcast
4:55 AM 33.8 °F 24.8 °F 19.4 °F 56% 30.18 in 10.0 mi North 12.7 mph 17.3 mph N/A   Overcast
5:15 AM 33.4 °F 24.8 °F 19.6 °F 57% 30.18 in 10.0 mi North 11.5 mph - N/A   Overcast
5:35 AM 32.5 °F 24.8 °F 19.4 °F 58% 30.19 in 10.0 mi North 9.2 mph - N/A   Mostly Cloudy
5:55 AM 31.8 °F 24.6 °F 19.2 °F 60% 30.19 in 10.0 mi North 8.1 mph - N/A   Scattered Clouds
6:15 AM 30.0 °F 21.7 °F 19.6 °F 65% 30.19 in 10.0 mi North 9.2 mph - N/A   Clear
6:35 AM 29.3 °F 22.3 °F 19.4 °F 67% 30.20 in 10.0 mi North 6.9 mph - N/A   Clear
6:55 AM 28.4 °F 21.2 °F 19.8 °F 70% 30.19 in 10.0 mi North 6.9 mph - N/A   Clear
7:15 AM 27.3 °F 20.9 °F 20.1 °F 74% 30.19 in 10.0 mi NNW 5.8 mph - N/A   Clear
7:35 AM 27.3 °F 22.0 °F 20.1 °F 74% 30.19 in 10.0 mi NNW 4.6 mph - N/A   Clear
7:55 AM 26.6 °F 20.0 °F 20.3 °F 77% 30.19 in 10.0 mi North 5.8 mph - N/A   Clear
8:15 AM 27.7 °F 21.3 °F 20.8 °F 75% 30.19 in 10.0 mi North 5.8 mph - N/A   Clear
8:35 AM 28.9 °F 23.9 °F 20.1 °F 70% 30.19 in 10.0 mi North 4.6 mph - N/A   Clear
8:55 AM 29.3 °F 22.3 °F 19.9 °F 68% 30.19 in 10.0 mi North 6.9 mph - N/A   Clear
9:15 AM 30.6 °F 23.8 °F 20.7 °F 67% 30.19 in 10.0 mi North 6.9 mph - N/A   Clear
9:35 AM 32.2 °F 23.8 °F 20.3 °F 62% 30.20 in 10.0 mi North 10.4 mph - N/A   Clear
9:55 AM 33.8 °F 26.4 °F 19.4 °F 56% 30.19 in 10.0 mi NNE 9.2 mph - N/A   Clear
10:15 AM 34.9 °F 27.1 °F 19.0 °F 52% 30.19 in 10.0 mi NNE 10.4 mph - N/A   Mostly Cloudy
10:35 AM 34.7 °F 28.1 °F 18.3 °F 51% 30.19 in 10.0 mi NNE 8.1 mph - N/A   Overcast
10:55 AM 35.2 °F 30.3 °F 17.6 °F 49% 30.19 in 10.0 mi NNE 5.8 mph - N/A   Overcast
11:15 AM 35.8 °F 30.1 °F 17.1 °F 47% 30.18 in 10.0 mi NNE 6.9 mph - N/A   Overcast
11:35 AM 36.1 °F 30.6 °F 17.1 °F 46% 30.18 in 10.0 mi NNE 6.9 mph - N/A   Overcast
11:55 AM 36.7 °F 32.9 °F 16.7 °F 44% 30.17 in 10.0 mi NNE 4.6 mph - N/A   Overcast
12:15 PM 37.0 °F 33.3 °F 16.0 °F 42% 30.17 in 10.0 mi NNE 4.6 mph - N/A   Overcast
12:35 PM 37.2 °F 33.6 °F 16.2 °F 42% 30.16 in 10.0 mi NNE 4.6 mph - N/A   Overcast
12:55 PM 37.4 °F 32.8 °F 16.0 °F 42% 30.15 in 10.0 mi NNE 5.8 mph - N/A   Overcast
1:15 PM 37.4 °F 31.4 °F 15.8 °F 41% 30.15 in 10.0 mi North 8.1 mph - N/A   Overcast
1:35 PM 37.6 °F 34.0 °F 15.4 °F 41% 30.13 in 10.0 mi NNE 4.6 mph - N/A   Overcast
1:55 PM 37.8 °F 34.2 °F 15.8 °F 41% 30.12 in 10.0 mi NNE 4.6 mph - N/A   Overcast
2:15 PM 37.6 °F 30.5 °F 15.4 °F 41% 30.11 in 10.0 mi North 10.4 mph - N/A   Overcast
2:35 PM 37.6 °F - 15.8 °F 41% 30.10 in 10.0 mi Calm Calm - N/A   Overcast
2:55 PM 37.4 °F 32.8 °F 15.8 °F 41% 30.10 in 10.0 mi NNE 5.8 mph - N/A   Overcast
3:15 PM 37.4 °F 31.4 °F 15.8 °F 41% 30.09 in 10.0 mi North 8.1 mph - N/A   Overcast
3:35 PM 37.2 °F 30.6 °F 16.2 °F 42% 30.09 in 10.0 mi North 9.2 mph - N/A   Overcast
3:55 PM 36.9 °F 31.4 °F 15.8 °F 42% 30.09 in 10.0 mi North 6.9 mph - N/A   Overcast
4:15 PM 37.0 °F 31.0 °F 16.5 °F 43% 30.09 in 10.0 mi North 8.1 mph - N/A   Overcast
4:35 PM 36.9 °F 30.7 °F 17.2 °F 45% 30.11 in 10.0 mi NNW 8.1 mph - N/A   Overcast
4:55 PM 36.9 °F 28.7 °F 17.4 °F 45% 30.12 in 10.0 mi NW 12.7 mph - N/A   Overcast
5:35 PM 35.1 °F 27.4 °F 21.2 °F 57% 30.11 in 10.0 mi NNW 10.4 mph - N/A   Overcast
5:55 PM 32.7 °F 23.4 °F 25.9 °F 76% 30.12 in 5.0 mi NNW 12.7 mph - N/A Snow Light Snow
6:15 PM 31.6 °F 23.7 °F 28.6 °F 88% 30.13 in 3.0 mi NNW 9.2 mph - N/A Snow Light Snow
6:35 PM 31.1 °F 25.4 °F 29.3 °F 93% 30.12 in 1.8 mi North 5.8 mph - N/A Snow Light Snow
6:55 PM 30.9 °F 24.3 °F 29.7 °F 95% 30.13 in 1.2 mi NNW 6.9 mph - N/A Snow Light Snow
7:15 PM 30.6 °F 25.8 °F 29.3 °F 95% 30.14 in 1.2 mi NNW 4.6 mph - N/A Snow Light Snow
7:35 PM 30.6 °F 27.1 °F 29.7 °F 96% 30.14 in 1.5 mi NW 3.5 mph - 0.01 in Snow Light Snow
7:55 PM 30.7 °F - 29.8 °F 96% 30.14 in 1.8 mi Calm Calm - 0.02 in Snow Light Snow
8:15 PM 30.7 °F 26.0 °F 30.0 °F 97% 30.16 in 2.5 mi WNW 4.6 mph - N/A Snow Light Snow
8:35 PM 30.7 °F - 29.8 °F 96% 30.15 in 2.5 mi Calm Calm - N/A Snow Light Snow
8:55 PM 30.7 °F 24.9 °F 29.8 °F 96% 30.17 in 5.0 mi WNW 5.8 mph - N/A Snow Light Snow
9:15 PM 30.9 °F 25.2 °F 29.3 °F 94% 30.16 in 2.5 mi NW 5.8 mph - N/A Snow Light Snow
9:35 PM 30.7 °F 27.3 °F 29.7 °F 96% 30.17 in 2.5 mi WNW 3.5 mph - N/A Snow Light Snow
9:55 PM 30.9 °F 26.2 °F 29.8 °F 96% 30.18 in 3.0 mi WNW 4.6 mph - N/A Snow Light Snow
10:15 PM 30.7 °F 26.0 °F 29.7 °F 96% 30.19 in 5.0 mi WNW 4.6 mph - N/A Snow Light Snow
10:35 PM 30.6 °F 27.1 °F 29.3 °F 95% 30.20 in 5.0 mi WNW 3.5 mph - N/A Snow Light Snow
10:55 PM 29.3 °F - 28.4 °F 96% 30.18 in 5.0 mi Calm Calm - N/A Snow Light Snow
11:15 PM 28.4 °F - 27.9 °F 98% 30.18 in 5.0 mi Calm Calm - N/A Snow Light Snow
11:35 PM 27.1 °F - 26.8 °F 99% 30.17 in 5.0 mi Calm Calm - N/A   Clear
11:55 PM 26.6 °F - 26.2 °F 99% 30.17 in 0.5 mi Calm Calm - N/A Fog Light Freezing Fog